»·PEaware :: ASA278 KLAX-KTNX

ASA278 :: KLAX-KTNX

FLIGHT INFORMATION

Flight Status: Arrived
Operator:
Alaska Airlines
More flights by this operator :: More flights under this callsign
Pilot: Jakub Z. (28062)
Aircraft: BOEING 737-800
(B738)
More flights by this aircraft type
Origin: KLAX Los Angeles Intl
United States
Destination: KTNX Tonopah Test Range
United States
More flights between these airports :: More routes between these airports
Route: +ORCKA4 HAILO BTY
File this flight plan on PilotEdge
Remarks: PBN / A1B1C1D1L1O1S1 NAV / RNVD1E2A1 DOF / 200220 REG / N584AS RVR / 200 PER / C
Altitude:
(Current/Filed)
31,000ft
Speed:
(Current/Filed)
440kts
Departed: 20-Feb-20 05:04 PM
Arrived: 20-Feb-20 05:52 PM
Distance/Time
Traveled:
244nm/0:47
Distance/Time
To Go:
Arrived

Flight Plot

Page will automatically refresh every two minutes.


Map Options




Map Legend


Flown Route
Filed Route
Departure Airport
Arrival Airport
Navaid (VOR, NDB)
Fix

Horizontal Profiles

Position Reports

Time Latitude Longitude Heading Altitude Ground
Speed
20-Feb-20 16:10 33.946792 -118.403433 267 134ft 0kts
20-Feb-20 16:11 33.946792 -118.403433 267 134ft 0kts
20-Feb-20 16:12 33.946792 -118.403433 267 134ft 0kts
20-Feb-20 16:13 33.946792 -118.403433 267 134ft 0kts
20-Feb-20 16:14 33.946792 -118.403433 267 134ft 0kts
20-Feb-20 16:15 33.946792 -118.403433 267 134ft 0kts
20-Feb-20 16:16 33.946792 -118.403433 267 134ft 0kts
20-Feb-20 16:17 33.946792 -118.403433 267 134ft 0kts
20-Feb-20 16:18 33.946792 -118.403433 267 134ft 0kts
20-Feb-20 16:19 33.946792 -118.403433 267 134ft 0kts
20-Feb-20 16:20 33.946792 -118.403433 267 134ft 0kts
20-Feb-20 16:21 33.946792 -118.403433 267 134ft 0kts
20-Feb-20 16:22 33.946792 -118.403433 267 134ft 0kts
20-Feb-20 16:23 33.946792 -118.403433 267 134ft 0kts
20-Feb-20 16:24 33.946792 -118.403433 267 134ft 0kts
20-Feb-20 16:25 33.946792 -118.403433 267 134ft 0kts
20-Feb-20 16:26 33.946792 -118.403433 267 134ft 0kts
20-Feb-20 16:27 33.946792 -118.403433 267 134ft 0kts
20-Feb-20 16:28 33.946792 -118.403433 267 134ft 0kts
20-Feb-20 16:29 33.946792 -118.403433 267 134ft 0kts
20-Feb-20 16:30 33.946792 -118.403433 267 134ft 0kts
20-Feb-20 16:31 33.946792 -118.403433 267 134ft 0kts
20-Feb-20 16:32 33.946792 -118.403433 267 134ft 0kts
20-Feb-20 16:33 33.946792 -118.403433 267 134ft 0kts
20-Feb-20 16:34 33.946792 -118.403433 267 134ft 0kts
20-Feb-20 16:35 33.946792 -118.403433 267 134ft 0kts
20-Feb-20 16:36 33.946792 -118.403433 267 134ft 0kts
20-Feb-20 16:37 33.946792 -118.403433 267 134ft 0kts
20-Feb-20 16:38 33.946792 -118.403433 267 134ft 0kts
20-Feb-20 16:39 33.946792 -118.403433 267 134ft 0kts
20-Feb-20 16:40 33.946792 -118.403433 267 134ft 0kts
20-Feb-20 16:41 33.946792 -118.403433 267 134ft 0kts
20-Feb-20 16:42 33.946792 -118.403433 267 134ft 0kts
20-Feb-20 16:43 33.946792 -118.403433 267 134ft 0kts
20-Feb-20 16:44 33.946792 -118.403433 267 134ft 0kts
20-Feb-20 16:45 33.946792 -118.403433 267 134ft 0kts
20-Feb-20 16:46 33.946792 -118.403433 267 134ft 0kts
20-Feb-20 16:47 33.946792 -118.403433 267 134ft 0kts
20-Feb-20 16:48 33.946792 -118.403433 267 134ft 0kts
20-Feb-20 16:49 33.946678 -118.402823 317 134ft 2kts
20-Feb-20 16:50 33.946502 -118.402718 356 134ft 0kts
20-Feb-20 16:51 33.946502 -118.402718 356 134ft 0kts
20-Feb-20 16:52 33.946970 -118.402749 357 134ft 0kts
20-Feb-20 16:53 33.946971 -118.402749 357 134ft 0kts
20-Feb-20 16:54 33.946972 -118.402750 357 134ft 0kts
20-Feb-20 16:55 33.946974 -118.402750 357 134ft 0kts
20-Feb-20 16:56 33.946975 -118.402750 357 134ft 0kts
20-Feb-20 16:57 33.947064 -118.402754 357 134ft 2kts
20-Feb-20 16:58 33.948970 -118.402470 89 134ft 0kts
20-Feb-20 16:59 33.948970 -118.402468 89 134ft 0kts
20-Feb-20 17:00 33.948970 -118.402465 89 134ft 0kts
20-Feb-20 17:01 33.949243 -118.401736 8 134ft 9kts
20-Feb-20 17:02 33.950139 -118.402041 287 134ft 10kts
20-Feb-20 17:03 33.947441 -118.429388 262 442ft 174kts
20-Feb-20 17:04 33.942359 -118.487817 263 3523ft 198kts
20-Feb-20 17:05 33.936779 -118.563878 263 5527ft 253kts
20-Feb-20 17:06 33.929802 -118.650684 263 7546ft 262kts
20-Feb-20 17:07 33.887180 -118.706964 172 9539ft 257kts
20-Feb-20 17:08 33.849173 -118.659808 100 11205ft 303kts
20-Feb-20 17:09 33.881876 -118.551760 64 12548ft 387kts
20-Feb-20 17:10 33.931731 -118.434997 61 14924ft 408kts
20-Feb-20 17:11 33.996714 -118.320379 58 16927ft 419kts
20-Feb-20 17:12 34.056153 -118.215659 58 18957ft 435kts
20-Feb-20 17:13 34.124676 -118.094237 58 20101ft 443kts
20-Feb-20 17:14 34.196517 -117.967159 56 21609ft 468kts
20-Feb-20 17:15 34.270898 -117.834488 57 23289ft 485kts
20-Feb-20 17:16 34.347965 -117.697623 53 24773ft 501kts
20-Feb-20 17:17 34.442499 -117.569355 47 25978ft 519kts
20-Feb-20 17:18 34.541364 -117.437565 47 27156ft 533kts
20-Feb-20 17:19 34.641611 -117.303314 47 28658ft 539kts
20-Feb-20 17:20 34.743124 -117.168090 47 30077ft 544kts
20-Feb-20 17:21 34.844794 -117.030416 46 31149ft 556kts
20-Feb-20 17:22 34.950336 -116.890084 46 31185ft 567kts
20-Feb-20 17:23 35.056018 -116.749447 45 31185ft 556kts
20-Feb-20 17:24 35.161285 -116.609892 45 31213ft 558kts
20-Feb-20 17:25 35.266417 -116.470044 46 31210ft 558kts
20-Feb-20 17:26 35.370933 -116.330035 45 31212ft 560kts
20-Feb-20 17:27 35.475200 -116.190659 45 31216ft 548kts
20-Feb-20 17:28 35.582306 -116.056867 28 31207ft 548kts
20-Feb-20 17:29 35.720948 -116.032906 331 31238ft 488kts
20-Feb-20 17:30 35.841533 -116.105243 321 31223ft 480kts
20-Feb-20 17:31 35.958658 -116.183674 322 31227ft 478kts
20-Feb-20 17:32 36.076224 -116.260912 321 31252ft 480kts
20-Feb-20 17:33 36.194077 -116.339493 321 31153ft 481kts
20-Feb-20 17:34 36.308628 -116.415993 322 30092ft 474kts
20-Feb-20 17:35 36.424997 -116.493978 323 29094ft 478kts
20-Feb-20 17:36 36.541663 -116.572389 325 27138ft 475kts
20-Feb-20 17:37 36.655908 -116.649460 326 24524ft 458kts
20-Feb-20 17:38 36.766626 -116.722914 336 21970ft 448kts
20-Feb-20 17:39 36.890300 -116.731151 358 19436ft 437kts
20-Feb-20 17:40 37.007242 -116.732369 358 16931ft 404kts
20-Feb-20 17:41 37.112515 -116.733871 358 16230ft 363kts
20-Feb-20 17:42 37.213629 -116.729558 3 14329ft 361kts
20-Feb-20 17:43 37.312281 -116.720975 3 12026ft 349kts
20-Feb-20 17:44 37.403919 -116.714081 3 11046ft 300kts
20-Feb-20 17:45 37.480655 -116.708642 3 10984ft 265kts
20-Feb-20 17:46 37.555368 -116.703372 3 10999ft 270kts
20-Feb-20 17:47 37.629198 -116.677851 24 9267ft 290kts
20-Feb-20 17:48 37.696712 -116.708001 321 7945ft 244kts
20-Feb-20 17:49 37.750199 -116.754740 334 6203ft 215kts
20-Feb-20 17:50 37.796636 -116.779553 338 5557ft 114kts
20-Feb-20 17:51 37.804857 -116.782545 66 5557ft 13kts
20-Feb-20 17:52 37.805440 -116.780226 124 5557ft 4kts
20-Feb-20 17:53 37.800959 -116.777725 158 5557ft 20kts
20-Feb-20 17:54 37.796217 -116.775260 158 5557ft 16kts
20-Feb-20 17:55 37.790948 -116.772439 157 5557ft 18kts
20-Feb-20 17:56 37.789499 -116.771677 157 5557ft 0kts
20-Feb-20 17:57 37.789498 -116.771676 157 5557ft 0kts
20-Feb-20 17:59 37.788919 -116.771371 157 5557ft 14kts
20-Feb-20 18:00 37.784869 -116.769130 128 5557ft 12kts
20-Feb-20 18:01 37.784131 -116.767125 105 5557ft 0kts
20-Feb-20 18:02 37.784204 -116.766794 67 5557ft 0kts
20-Feb-20 18:03 37.784204 -116.766794 67 5557ft 0kts
20-Feb-20 18:04 37.784204 -116.766794 67 5557ft 0kts
20-Feb-20 18:05 37.784204 -116.766794 67 5557ft 0kts
20-Feb-20 18:06 37.784204 -116.766794 67 5557ft 0kts

Navigation Log

Ident Type
Flight plan parsing failed, navigation log unavailable